Time;durP1;ratioP1;P1;durP2;ratioP2;P2;SDS_P1;SDS_P2;PMS_P1;PMS_P2;Temp;Humidity;BMP_temperature;BMP_pressure;BME280_temperature;BME280_humidity;BME280_pressure;Samples;Min_cycle;Max_cycle;Signal;HPM_P1;HPM_P2
2022/07/25 00:00:57;;;;;;;2.02;1.47;;;;;;;19.16;100.00;99285.84;1740356;80;20970;-52
2022/07/25 00:03:23;;;;;;;2.35;1.75;;;;;;;19.14;100.00;99281.03;1740685;80;20926;-53
2022/07/25 00:05:50;;;;;;;2.95;1.72;;;;;;;19.11;100.00;99287.28;1739715;80;21189;-51
2022/07/25 00:08:18;;;;;;;1.52;1.27;;;;;;;19.09;100.00;99291.50;1738752;80;20957;-51
2022/07/25 00:10:45;;;;;;;2.75;1.95;;;;;;;19.07;100.00;99285.31;1742123;80;20910;-52
2022/07/25 00:13:13;;;;;;;4.47;1.92;;;;;;;19.04;100.00;99288.84;1745217;80;20957;-52
2022/07/25 00:15:41;;;;;;;5.53;1.92;;;;;;;19.01;100.00;99286.38;1742853;80;20871;-52
2022/07/25 00:18:07;;;;;;;3.35;1.70;;;;;;;18.98;100.00;99286.14;1736118;80;21236;-53
2022/07/25 00:20:35;;;;;;;2.87;1.40;;;;;;;18.97;100.00;99283.05;1674273;83;21392;-51
2022/07/25 00:23:03;;;;;;;1.77;1.20;;;;;;;18.95;100.00;99290.53;1690006;83;21448;-53
2022/07/25 00:25:31;;;;;;;6.58;2.20;;;;;;;18.91;100.00;99286.34;1690168;82;20934;-53
2022/07/25 00:28:00;;;;;;;2.17;1.35;;;;;;;18.87;100.00;99283.55;1685576;83;20946;-52
2022/07/25 00:30:26;;;;;;;2.75;1.40;;;;;;;18.85;100.00;99286.40;1688653;82;21425;-52
2022/07/25 00:32:53;;;;;;;2.17;1.92;;;;;;;18.83;100.00;99287.03;1687614;83;21416;-52
2022/07/25 00:35:20;;;;;;;3.77;1.50;;;;;;;18.80;100.00;99281.84;1688602;83;20975;-51
2022/07/25 00:37:46;;;;;;;1.42;1.32;;;;;;;18.77;100.00;99290.31;1704771;82;21042;-52
2022/07/25 00:40:13;;;;;;;5.47;1.60;;;;;;;18.75;100.00;99288.22;1741266;80;21044;-52
2022/07/25 00:42:40;;;;;;;2.62;1.80;;;;;;;18.70;100.00;99293.23;1738037;80;22501;-52
2022/07/25 00:45:08;;;;;;;2.75;1.50;;;;;;;18.68;100.00;99295.22;1733979;80;21018;-52
2022/07/25 00:47:34;;;;;;;4.80;1.72;;;;;;;18.66;100.00;99294.48;1670817;83;21022;-52
2022/07/25 00:50:01;;;;;;;3.77;1.57;;;;;;;18.64;100.00;99291.52;1693176;82;21129;-51
2022/07/25 00:52:28;;;;;;;4.55;1.32;;;;;;;18.62;100.00;99284.00;1733089;80;21056;-51
2022/07/25 00:54:55;;;;;;;4.85;1.50;;;;;;;18.60;100.00;99273.73;1733425;80;21193;-53
2022/07/25 00:57:22;;;;;;;2.37;1.65;;;;;;;18.56;100.00;99277.18;1731355;80;21559;-52
2022/07/25 00:59:48;;;;;;;4.20;1.75;;;;;;;18.53;100.00;99278.34;1732197;80;21057;-52
2022/07/25 01:02:15;;;;;;;2.00;1.55;;;;;;;18.50;100.00;99283.19;1731712;80;21061;-52
2022/07/25 01:04:41;;;;;;;1.60;1.50;;;;;;;18.47;100.00;99280.22;1729329;80;21042;-51
2022/07/25 01:07:08;;;;;;;2.65;1.40;;;;;;;18.46;100.00;99274.90;1735315;80;21239;-52
2022/07/25 01:09:35;;;;;;;2.22;1.10;;;;;;;18.41;100.00;99281.27;1733013;80;21069;-52
2022/07/25 01:12:03;;;;;;;1.25;1.15;;;;;;;18.36;100.00;99279.45;1730554;80;21399;-52
2022/07/25 01:14:30;;;;;;;6.53;1.50;;;;;;;18.33;100.00;99276.98;1729592;80;21061;-51
2022/07/25 01:16:57;;;;;;;2.47;1.07;;;;;;;18.30;100.00;99275.88;1730087;80;21116;-51
2022/07/25 01:19:24;;;;;;;1.42;1.00;;;;;;;18.27;100.00;99277.53;1728410;80;21534;-52
2022/07/25 01:21:51;;;;;;;1.20;1.10;;;;;;;18.26;100.00;99276.67;1737345;80;21052;-52
2022/07/25 01:24:17;;;;;;;1.82;1.17;;;;;;;18.21;100.00;99282.13;1671888;84;21102;-51
2022/07/25 01:26:44;;;;;;;2.95;1.50;;;;;;;18.19;100.00;99280.06;1668328;84;21082;-52
2022/07/25 01:29:12;;;;;;;5.80;1.30;;;;;;;18.18;100.00;99283.28;1731264;80;21070;-51
2022/07/25 01:31:38;;;;;;;1.80;1.25;;;;;;;18.15;100.00;99277.59;1730666;80;21140;-51
2022/07/25 01:34:05;;;;;;;2.70;1.50;;;;;;;18.15;100.00;99278.09;1732016;80;21512;-51
2022/07/25 01:36:31;;;;;;;2.12;1.10;;;;;;;18.11;100.00;99277.52;1669937;84;21053;-51
2022/07/25 01:38:58;;;;;;;1.57;1.30;;;;;;;18.09;100.00;99278.63;1731595;80;21061;-52
2022/07/25 01:41:25;;;;;;;1.55;1.10;;;;;;;18.06;100.00;99282.47;1664840;83;22382;-52
2022/07/25 01:43:51;;;;;;;2.45;1.07;;;;;;;18.04;100.00;99288.55;1731998;80;22035;-50
2022/07/25 01:46:18;;;;;;;1.85;1.22;;;;;;;18.02;100.00;99289.70;1736876;80;21364;-52
2022/07/25 01:48:44;;;;;;;2.75;1.00;;;;;;;17.97;100.00;99292.80;1740555;80;20951;-52
2022/07/25 01:51:11;;;;;;;3.50;1.30;;;;;;;17.95;100.00;99286.61;1738470;80;21121;-51
2022/07/25 01:53:37;;;;;;;5.03;1.27;;;;;;;17.93;100.00;99289.12;1736724;80;21030;-51
2022/07/25 01:56:05;;;;;;;2.40;1.02;;;;;;;17.91;100.00;99291.10;1736282;80;21104;-52
2022/07/25 01:58:31;;;;;;;1.22;1.12;;;;;;;17.87;100.00;99289.12;1738406;80;22199;-52
2022/07/25 02:00:58;;;;;;;1.30;1.20;;;;;;;17.85;100.00;99288.91;1737448;80;21077;-51
2022/07/25 02:03:30;;;;;;;2.05;1.00;;;;;;;17.84;100.00;99287.19;1740307;80;21101;-52
2022/07/25 02:06:03;;;;;;;2.08;1.07;;;;;;;17.81;100.00;99288.30;1739898;80;21049;-51
2022/07/25 02:08:31;;;;;;;3.58;1.42;;;;;;;17.77;100.00;99288.21;1672340;83;21475;-51
2022/07/25 02:10:57;;;;;;;1.20;1.10;;;;;;;17.75;100.00;99286.97;1684082;82;21643;-51
2022/07/25 02:13:25;;;;;;;2.45;1.10;;;;;;;17.73;100.00;99288.95;1685660;83;21100;-51
2022/07/25 02:15:52;;;;;;;3.67;1.20;;;;;;;17.71;100.00;99280.55;1684550;82;21136;-50
2022/07/25 02:18:18;;;;;;;5.37;1.07;;;;;;;17.69;100.00;99291.55;1678312;83;21109;-51
2022/07/25 02:20:45;;;;;;;2.40;0.90;;;;;;;17.65;100.00;99293.31;1684194;83;21251;-51
2022/07/25 02:23:11;;;;;;;6.10;1.40;;;;;;;17.60;100.00;99300.98;1684095;83;21065;-52
2022/07/25 02:25:38;;;;;;;3.00;1.05;;;;;;;17.53;100.00;99297.02;1683720;83;21983;-52
2022/07/25 02:28:05;;;;;;;2.55;1.12;;;;;;;17.49;100.00;99294.21;1685496;83;21137;-51
2022/07/25 02:30:32;;;;;;;2.45;1.02;;;;;;;17.43;100.00;99292.87;1682195;82;21466;-51
2022/07/25 02:32:59;;;;;;;1.25;1.15;;;;;;;17.37;100.00;99292.87;1684761;83;21262;-52
2022/07/25 02:35:25;;;;;;;1.17;1.05;;;;;;;17.35;100.00;99290.77;1675925;83;21548;-50
2022/07/25 02:37:51;;;;;;;2.17;0.90;;;;;;;17.33;100.00;99295.50;1739273;80;21084;-52
2022/07/25 02:40:18;;;;;;;3.17;0.90;;;;;;;17.31;100.00;99292.03;1737006;80;21097;-50
2022/07/25 02:42:44;;;;;;;0.90;0.90;;;;;;;17.28;100.00;99292.27;1741282;80;21025;-51
2022/07/25 02:45:10;;;;;;;3.50;1.05;;;;;;;17.26;100.00;99303.80;1735934;80;21479;-51
2022/07/25 02:47:38;;;;;;;1.82;0.90;;;;;;;17.25;100.00;99302.56;1697399;82;21113;-51
2022/07/25 02:50:06;;;;;;;3.75;1.57;;;;;;;17.24;100.00;99302.19;1699166;82;21152;-51
2022/07/25 02:52:33;;;;;;;2.80;0.90;;;;;;;17.24;100.00;99307.63;1703232;82;20967;-51
2022/07/25 02:55:00;;;;;;;2.75;1.07;;;;;;;17.24;100.00;99308.50;1699112;82;21444;-51
2022/07/25 02:57:26;;;;;;;2.85;0.80;;;;;;;17.24;100.00;99308.98;1698106;82;21079;-52
2022/07/25 02:59:54;;;;;;;2.00;1.20;;;;;;;17.24;100.00;99309.86;1699918;82;21559;-51
2022/07/25 03:02:20;;;;;;;1.77;0.88;;;;;;;17.23;100.00;99312.20;1699137;82;20986;-51
2022/07/25 03:04:46;;;;;;;2.60;1.00;;;;;;;17.22;100.00;99315.05;1696709;82;21551;-50
2022/07/25 03:07:13;;;;;;;5.22;1.00;;;;;;;17.21;100.00;99316.90;1695245;82;21132;-50
2022/07/25 03:09:40;;;;;;;1.98;1.30;;;;;;;17.20;100.00;99313.80;1697212;82;21215;-51
2022/07/25 03:12:06;;;;;;;2.35;0.95;;;;;;;17.20;100.00;99312.45;1699889;82;21543;-50
2022/07/25 03:14:33;;;;;;;2.15;1.00;;;;;;;17.20;100.00;99313.80;1701950;82;21494;-50
2022/07/25 03:17:00;;;;;;;3.67;0.88;;;;;;;17.20;100.00;99316.52;1699280;82;21069;-52
2022/07/25 03:19:26;;;;;;;3.83;0.95;;;;;;;17.22;100.00;99316.41;1701885;82;21041;-50
2022/07/25 03:21:53;;;;;;;3.00;1.00;;;;;;;17.23;100.00;99317.64;1703637;82;21417;-51
2022/07/25 03:24:20;;;;;;;1.00;0.80;;;;;;;17.25;100.00;99315.67;1700435;82;20930;-53
2022/07/25 03:26:46;;;;;;;1.77;1.00;;;;;;;17.26;100.00;99310.60;1696630;82;20930;-51
2022/07/25 03:29:13;;;;;;;1.40;0.90;;;;;;;17.26;100.00;99302.44;1702389;82;21443;-52
2022/07/25 03:31:40;;;;;;;1.00;0.80;;;;;;;17.29;100.00;99310.33;1702167;82;20986;-51
2022/07/25 03:34:07;;;;;;;3.75;0.80;;;;;;;17.32;100.00;99308.73;1700446;82;21513;-51
2022/07/25 03:36:34;;;;;;;2.05;0.70;;;;;;;17.35;100.00;99308.45;1699462;82;21106;-51
2022/07/25 03:39:01;;;;;;;1.20;0.90;;;;;;;17.39;100.00;99315.37;1701039;82;21070;-50
2022/07/25 03:41:27;;;;;;;5.25;1.00;;;;;;;17.44;100.00;99304.09;1697719;82;22398;-51
2022/07/25 03:43:54;;;;;;;0.98;0.70;;;;;;;17.47;100.00;99311.16;1697765;82;21512;-52
2022/07/25 03:46:20;;;;;;;2.05;0.80;;;;;;;17.49;100.00;99305.09;1706366;81;21671;-50
2022/07/25 03:48:47;;;;;;;0.80;0.70;;;;;;;17.50;100.00;99304.97;1729840;81;21081;-53
2022/07/25 03:51:14;;;;;;;2.35;0.78;;;;;;;17.55;100.00;99307.30;1724258;81;21094;-52
2022/07/25 03:56:25;;;;;;;3.08;0.85;;;;;;;17.57;100.00;99308.03;1716628;81;21077;-50
2022/07/25 03:58:52;;;;;;;3.27;0.75;;;;;;;17.58;100.00;99307.91;1724692;81;22631;-53
2022/07/25 04:01:19;;;;;;;8.15;0.80;;;;;;;17.59;100.00;99312.86;1725168;81;21081;-51
2022/07/25 04:03:45;;;;;;;1.85;0.70;;;;;;;17.63;100.00;99317.06;1724677;81;21301;-52
2022/07/25 04:06:12;;;;;;;2.15;0.80;;;;;;;17.65;100.00;99322.77;1726835;81;22389;-51
2022/07/25 04:08:38;;;;;;;2.80;0.70;;;;;;;17.66;100.00;99329.07;1725376;81;21071;-51
2022/07/25 04:11:05;;;;;;;0.70;0.70;;;;;;;17.66;100.00;99330.44;1724638;81;21572;-50
2022/07/25 04:13:32;;;;;;;0.82;0.70;;;;;;;17.67;100.00;99325.36;1728445;81;21698;-53
2022/07/25 04:15:59;;;;;;;1.05;0.82;;;;;;;17.69;100.00;99326.94;1726039;81;21085;-52
2022/07/25 04:18:25;;;;;;;0.72;0.70;;;;;;;17.72;100.00;99325.83;1725873;81;21038;-53
2022/07/25 04:20:52;;;;;;;1.17;0.80;;;;;;;17.75;100.00;99324.22;1727967;81;21046;-52
2022/07/25 04:23:19;;;;;;;3.30;0.80;;;;;;;17.78;100.00;99323.44;1729368;81;21853;-53
2022/07/25 04:25:45;;;;;;;1.82;0.70;;;;;;;17.82;100.00;99317.75;1720520;81;21089;-53
2022/07/25 04:28:12;;;;;;;1.10;0.70;;;;;;;17.84;100.00;99319.36;1648870;84;21149;-51
2022/07/25 04:30:39;;;;;;;1.27;0.70;;;;;;;17.88;100.00;99313.13;1728882;81;21033;-53
2022/07/25 04:33:05;;;;;;;0.70;0.68;;;;;;;17.91;100.00;99314.25;1726433;81;21484;-53
2022/07/25 04:35:34;;;;;;;2.35;0.93;;;;;;;17.96;100.00;99316.93;1728143;81;22719;-52
2022/07/25 04:38:00;;;;;;;2.35;1.00;;;;;;;18.01;100.00;99322.00;1699098;81;21042;-51
2022/07/25 04:40:27;;;;;;;1.95;0.70;;;;;;;18.06;100.00;99324.69;1722942;81;21101;-52
2022/07/25 04:42:53;;;;;;;1.42;0.70;;;;;;;18.12;100.00;99326.01;1722976;81;21564;-52
2022/07/25 04:45:20;;;;;;;1.65;0.70;;;;;;;18.17;100.00;99329.22;1720793;81;21058;-52
2022/07/25 04:47:46;;;;;;;0.93;0.70;;;;;;;18.19;100.00;99330.45;1727040;80;21480;-52
2022/07/25 04:50:14;;;;;;;1.20;0.70;;;;;;;18.21;100.00;99332.03;1731860;80;21072;-53
2022/07/25 04:52:41;;;;;;;0.90;0.90;;;;;;;18.25;100.00;99319.89;1723381;80;21058;-52
2022/07/25 04:55:08;;;;;;;2.98;0.82;;;;;;;18.28;100.00;99326.94;1727372;81;21406;-51
2022/07/25 04:57:34;;;;;;;1.60;0.70;;;;;;;18.31;100.00;99332.10;1728060;82;21049;-51
2022/07/25 05:00:07;;;;;;;3.67;0.60;;;;;;;18.33;100.00;99332.84;1729975;80;21538;-52
2022/07/25 05:02:34;;;;;;;0.95;0.70;;;;;;;18.33;100.00;99328.75;1728232;81;21097;-51
2022/07/25 05:05:01;;;;;;;1.45;0.70;;;;;;;18.36;100.00;99334.81;1729516;81;21574;-51
2022/07/25 05:07:28;;;;;;;2.25;0.85;;;;;;;18.42;100.00;99333.41;1664404;84;21085;-51
2022/07/25 05:09:55;;;;;;;2.55;0.82;;;;;;;18.44;100.00;99337.73;1730931;80;21098;-52
2022/07/25 05:12:21;;;;;;;3.87;0.70;;;;;;;18.44;100.00;99335.51;1672332;83;21244;-53
2022/07/25 05:14:49;;;;;;;1.92;0.80;;;;;;;18.45;100.00;99336.74;1687547;83;21561;-52
2022/07/25 05:17:17;;;;;;;3.72;0.82;;;;;;;18.48;100.00;99332.86;1688181;83;21138;-52
2022/07/25 05:19:44;;;;;;;3.83;0.90;;;;;;;18.47;100.00;99326.55;1678799;84;21054;-52
2022/07/25 05:22:10;;;;;;;4.50;0.78;;;;;;;18.47;100.00;99337.95;1689783;82;21398;-51
2022/07/25 05:24:37;;;;;;;3.65;1.07;;;;;;;18.49;100.00;99340.05;1685991;84;21127;-51
2022/07/25 05:27:04;;;;;;;3.47;0.70;;;;;;;18.48;100.00;99334.23;1684743;83;21069;-52
2022/07/25 05:29:31;;;;;;;1.20;0.88;;;;;;;18.46;100.00;99340.30;1687665;83;21084;-52
2022/07/25 05:31:57;;;;;;;1.52;0.85;;;;;;;18.47;100.00;99339.30;1685741;84;21037;-52
2022/07/25 05:34:24;;;;;;;4.00;0.70;;;;;;;18.47;100.00;99334.72;1684460;83;21072;-54
2022/07/25 05:36:50;;;;;;;4.50;0.80;;;;;;;18.51;100.00;99333.97;1684565;83;21161;-53
2022/07/25 05:39:17;;;;;;;2.50;0.78;;;;;;;18.56;100.00;99330.33;1684556;83;21528;-53
2022/07/25 05:41:44;;;;;;;2.60;0.90;;;;;;;18.62;100.00;99338.02;1727882;81;21062;-52
2022/07/25 05:44:10;;;;;;;2.40;1.00;;;;;;;18.70;100.00;99336.84;1727394;80;21077;-52
2022/07/25 05:46:37;;;;;;;2.60;1.00;;;;;;;18.76;100.00;99329.98;1730006;80;22481;-53
2022/07/25 05:49:04;;;;;;;1.30;0.60;;;;;;;18.79;100.00;99334.67;1729623;80;21839;-51
2022/07/25 05:51:30;;;;;;;0.78;0.70;;;;;;;18.82;100.00;99328.06;1726200;81;21081;-51
2022/07/25 05:53:57;;;;;;;3.45;1.02;;;;;;;18.88;100.00;99334.36;1729950;80;21132;-52
2022/07/25 05:56:25;;;;;;;0.98;0.70;;;;;;;18.95;100.00;99330.58;1731141;81;21005;-51
2022/07/25 05:58:51;;;;;;;1.45;0.80;;;;;;;19.00;100.00;99330.52;1731245;81;21097;-53
2022/07/25 06:01:19;;;;;;;1.15;0.90;;;;;;;19.07;100.00;99334.92;1732487;80;21290;-52
2022/07/25 06:03:45;;;;;;;2.10;0.80;;;;;;;19.08;100.00;99332.06;1733139;80;21148;-52
2022/07/25 06:06:12;;;;;;;4.10;0.70;;;;;;;19.10;100.00;99322.37;1732208;80;21444;-54
2022/07/25 06:08:39;;;;;;;0.85;0.80;;;;;;;19.13;100.00;99331.16;1730954;80;20906;-53
2022/07/25 06:11:07;;;;;;;1.32;0.70;;;;;;;19.16;100.00;99328.14;1731073;80;20922;-52
2022/07/25 06:13:35;;;;;;;1.15;0.80;;;;;;;19.24;100.00;99312.44;1734217;80;21252;-51
2022/07/25 06:16:04;;;;;;;4.20;0.80;;;;;;;19.37;100.00;99319.02;1733649;80;21454;-51
2022/07/25 06:18:31;;;;;;;1.00;0.90;;;;;;;19.45;100.00;99320.05;1732547;80;20983;-51
2022/07/25 06:20:57;;;;;;;1.20;0.90;;;;;;;19.52;100.00;99310.31;1729216;80;21120;-51
2022/07/25 06:23:24;;;;;;;1.80;0.95;;;;;;;19.57;100.00;99313.97;1733353;80;21516;-51
2022/07/25 06:25:50;;;;;;;2.30;0.78;;;;;;;19.62;100.00;99308.97;1692195;82;22713;-52
2022/07/25 06:28:17;;;;;;;1.85;0.70;;;;;;;19.62;100.00;99315.80;1730327;80;21088;-52
2022/07/25 06:30:44;;;;;;;3.30;0.80;;;;;;;19.64;100.00;99305.60;1729170;80;21645;-52
2022/07/25 06:33:12;;;;;;;1.67;0.90;;;;;;;19.70;100.00;99305.02;1729156;80;21541;-51
2022/07/25 06:35:39;;;;;;;1.80;1.10;;;;;;;19.75;100.00;99301.34;1664926;84;21572;-51
2022/07/25 06:38:05;;;;;;;0.80;0.80;;;;;;;19.79;100.00;99303.30;1670465;83;21718;-51
2022/07/25 06:40:32;;;;;;;2.00;0.88;;;;;;;19.82;100.00;99303.03;1732572;80;21054;-53
2022/07/25 06:42:58;;;;;;;5.35;0.90;;;;;;;19.84;100.00;99306.45;1736129;80;21105;-52
2022/07/25 06:45:25;;;;;;;1.65;1.00;;;;;;;19.87;100.00;99300.22;1730624;80;21086;-54
2022/07/25 06:47:53;;;;;;;2.22;0.72;;;;;;;19.88;100.00;99293.75;1731088;80;21155;-51
2022/07/25 06:50:21;;;;;;;0.80;0.80;;;;;;;19.90;100.00;99289.52;1741706;80;21880;-51
2022/07/25 06:52:47;;;;;;;2.50;1.00;;;;;;;19.97;100.00;99300.22;1738529;80;21101;-53
2022/07/25 06:55:14;;;;;;;1.15;0.85;;;;;;;20.03;100.00;99298.27;1708683;82;21094;-53
2022/07/25 06:57:41;;;;;;;2.17;0.90;;;;;;;20.09;100.00;99292.72;1677532;83;21670;-53
2022/07/25 07:00:10;;;;;;;1.22;0.80;;;;;;;20.20;100.00;99296.67;1708393;82;21036;-52
2022/07/25 07:02:54;;;;;;;1.25;0.80;;;;;;;20.27;100.00;99295.94;1713747;82;21540;-52
2022/07/25 07:05:22;;;;;;;1.82;1.00;;;;;;;20.35;100.00;99294.73;1708118;82;21405;-53
2022/07/25 07:07:50;;;;;;;1.60;0.70;;;;;;;20.43;100.00;99300.83;1704910;82;21049;-54
2022/07/25 07:10:17;;;;;;;2.67;0.80;;;;;;;20.51;100.00;99300.95;1712184;82;21050;-54
2022/07/25 07:12:45;;;;;;;0.80;0.62;;;;;;;20.58;100.00;99299.88;1705627;82;21012;-52
2022/07/25 07:15:11;;;;;;;1.52;0.90;;;;;;;20.63;100.00;99305.75;1703746;82;22897;-53
2022/07/25 07:17:39;;;;;;;0.95;0.85;;;;;;;20.63;100.00;99301.15;1704811;82;21065;-53
2022/07/25 07:20:07;;;;;;;1.30;0.85;;;;;;;20.62;100.00;99299.42;1706415;82;21055;-53
2022/07/25 07:22:45;;;;;;;1.32;0.80;;;;;;;20.62;100.00;99301.29;1709930;82;21102;-52
2022/07/25 07:25:13;;;;;;;2.45;0.80;;;;;;;20.63;100.00;99298.41;1691774;82;21747;-53
2022/07/25 07:27:40;;;;;;;1.25;0.80;;;;;;;20.67;100.00;99292.98;1693891;82;21901;-52
2022/07/25 07:30:08;;;;;;;0.72;0.72;;;;;;;20.75;100.00;99286.30;1692455;82;21096;-52
2022/07/25 07:32:35;;;;;;;1.17;0.70;;;;;;;20.86;100.00;99300.27;1688103;82;21037;-52
2022/07/25 07:35:01;;;;;;;0.90;0.70;;;;;;;21.00;100.00;99297.56;1690078;82;21078;-52
2022/07/25 07:37:28;;;;;;;1.20;0.72;;;;;;;21.11;100.00;99297.34;1687929;83;21429;-53
2022/07/25 07:39:54;;;;;;;0.78;0.70;;;;;;;21.20;100.00;99291.00;1709398;82;22331;-53
2022/07/25 07:42:22;;;;;;;1.65;1.15;;;;;;;21.27;100.00;99293.47;1703584;82;21199;-53
2022/07/25 07:44:49;;;;;;;2.02;0.75;;;;;;;21.31;100.00;99292.17;1704860;82;21805;-53
2022/07/25 07:47:16;;;;;;;0.80;0.70;;;;;;;21.37;100.00;99294.28;1705226;82;21413;-54
2022/07/25 07:49:42;;;;;;;1.77;0.80;;;;;;;21.43;100.00;99307.38;1682617;82;21663;-52
2022/07/25 07:52:08;;;;;;;2.00;0.98;;;;;;;21.49;100.00;99300.42;1705538;82;22810;-55
2022/07/25 07:57:20;;;;;;;2.67;0.80;;;;;;;21.64;100.00;99304.85;1705175;82;21576;-57
2022/07/25 07:59:46;;;;;;;1.60;0.70;;;;;;;21.72;100.00;99299.45;1708942;82;21395;-53
2022/07/25 08:02:13;;;;;;;0.80;0.70;;;;;;;21.77;100.00;99302.10;1706233;82;21101;-54
2022/07/25 08:04:39;;;;;;;0.70;0.62;;;;;;;21.78;100.00;99308.41;1703686;82;21568;-56
2022/07/25 08:07:06;;;;;;;2.52;0.70;;;;;;;21.79;100.00;99305.52;1709584;82;21070;-54
2022/07/25 08:09:34;;;;;;;0.90;0.80;;;;;;;21.76;100.00;99307.23;1703186;82;21400;-56
2022/07/25 08:12:01;;;;;;;2.25;0.70;;;;;;;21.73;100.00;99303.92;1683915;83;21511;-56
2022/07/25 08:14:28;;;;;;;3.25;0.80;;;;;;;21.78;100.00;99302.94;1679789;83;21084;-54
2022/07/25 08:16:56;;;;;;;0.98;0.60;;;;;;;21.81;100.00;99308.98;1675870;83;21297;-55
2022/07/25 08:19:23;;;;;;;1.87;0.70;;;;;;;21.81;100.00;99311.72;1686970;83;21046;-53
2022/07/25 08:21:51;;;;;;;0.68;0.60;;;;;;;21.78;100.00;99307.05;1686364;82;21547;-55
2022/07/25 08:24:17;;;;;;;0.98;0.60;;;;;;;21.74;100.00;99304.28;1687634;83;21587;-54
2022/07/25 08:26:44;;;;;;;1.20;0.60;;;;;;;21.70;100.00;99312.44;1688194;82;21360;-54
2022/07/25 08:29:11;;;;;;;0.60;0.60;;;;;;;21.68;100.00;99305.77;1686613;82;21144;-57
2022/07/25 08:31:39;;;;;;;0.80;0.60;;;;;;;21.72;100.00;99315.39;1684019;83;22036;-53
2022/07/25 08:34:06;;;;;;;1.12;0.60;;;;;;;21.75;100.00;99313.72;1685831;82;21112;-54
2022/07/25 08:36:32;;;;;;;0.60;0.60;;;;;;;21.80;100.00;99309.98;1688145;83;21116;-54
2022/07/25 08:39:00;;;;;;;5.45;0.70;;;;;;;21.89;100.00;99308.19;1690830;83;21315;-53
2022/07/25 08:41:27;;;;;;;3.08;0.50;;;;;;;21.98;100.00;99299.06;1690134;83;21888;-56
2022/07/25 08:43:54;;;;;;;1.10;0.70;;;;;;;22.05;100.00;99305.64;1689386;82;20938;-52
2022/07/25 08:46:21;;;;;;;1.20;0.70;;;;;;;22.10;100.00;99310.66;1703097;82;20907;-53
2022/07/25 08:48:47;;;;;;;2.33;0.60;;;;;;;22.14;100.00;99302.45;1671959;83;21444;-53
2022/07/25 08:51:14;;;;;;;0.72;0.70;;;;;;;22.20;100.00;99299.11;1739553;80;22240;-54
2022/07/25 08:53:40;;;;;;;0.80;0.60;;;;;;;22.29;100.00;99291.27;1731874;80;21832;-54
2022/07/25 08:56:08;;;;;;;0.70;0.60;;;;;;;22.37;100.00;99294.07;1674508;83;21713;-53
2022/07/25 08:58:34;;;;;;;0.70;0.60;;;;;;;22.43;100.00;99299.45;1739039;80;21026;-54
2022/07/25 09:01:02;;;;;;;2.58;0.60;;;;;;;22.43;100.00;99289.85;1736891;80;21311;-52
2022/07/25 09:03:28;;;;;;;1.25;0.62;;;;;;;22.43;100.00;99293.97;1739104;80;20941;-54
2022/07/25 09:05:55;;;;;;;1.35;0.57;;;;;;;22.45;100.00;99294.67;1739664;80;21583;-53
2022/07/25 09:08:21;;;;;;;0.70;0.70;;;;;;;22.46;100.00;99298.59;1739390;80;21119;-53
2022/07/25 09:10:50;;;;;;;0.95;0.60;;;;;;;22.43;100.00;99301.68;1667468;83;21139;-53
2022/07/25 09:13:18;;;;;;;0.55;0.55;;;;;;;22.39;100.00;99297.52;1735758;81;21054;-53
2022/07/25 09:15:47;;;;;;;0.65;0.50;;;;;;;22.41;100.00;99290.52;1741561;80;21037;-52
2022/07/25 09:18:16;;;;;;;2.37;0.60;;;;;;;22.49;100.00;99283.20;1740906;81;21231;-52
2022/07/25 09:20:49;;;;;;;0.80;0.47;;;;;;;22.56;100.00;99282.91;1731577;80;21042;-52
2022/07/25 09:23:35;;;;;;;0.70;0.60;;;;;;;22.62;100.00;99282.28;1733264;80;21480;-53
2022/07/25 09:26:11;;;;;;;0.90;0.75;;;;;;;22.68;100.00;99286.25;1734202;80;21097;-52
2022/07/25 09:28:47;;;;;;;3.45;0.60;;;;;;;22.66;100.00;99288.28;1674059;83;21073;-52
2022/07/25 09:31:15;;;;;;;0.90;0.50;;;;;;;22.69;100.00;99287.11;1735830;80;21145;-52
2022/07/25 09:34:39;;;;;;;2.98;0.50;;;;;;;22.78;100.00;99293.03;1553808;80;975522;-53
2022/07/25 09:37:09;;;;;;;1.30;0.50;;;;;;;22.78;100.00;99293.03;1740035;80;21150;-54
2022/07/25 09:39:49;;;;;;;2.10;0.40;;;;;;;22.74;100.00;99281.52;1743511;80;21339;-53
2022/07/25 10:02:43;;;;;;;1.52;0.50;;;;;;;23.08;100.00;99276.02;1780694;78;22483;-55
2022/07/25 10:05:30;;;;;;;;;;;;;;;22.96;100.00;99282.34;1744987;80;21025;-54
2022/07/25 10:07:57;;;;;;;0.78;0.47;;;;;;;22.96;100.00;99282.34;1735535;80;21127;-53
2022/07/25 10:10:30;;;;;;;0.60;0.50;;;;;;;23.01;100.00;99279.09;1745683;80;20974;-53
2022/07/25 10:13:09;;;;;;;0.90;0.50;;;;;;;23.06;100.00;99268.97;1743036;80;20942;-52
2022/07/25 10:15:51;;;;;;;0.50;0.50;;;;;;;23.10;100.00;99263.00;1706513;81;21427;-53
2022/07/25 10:18:21;;;;;;;1.33;0.50;;;;;;;23.16;100.00;99280.69;1711654;81;21528;-55
2022/07/25 10:20:54;;;;;;;0.60;0.50;;;;;;;23.27;100.00;99270.27;1709681;81;21374;-55
2022/07/25 10:23:24;;;;;;;1.57;0.50;;;;;;;23.31;100.00;99263.41;1694522;83;20994;-54
2022/07/25 10:26:15;;;;;;;0.72;0.50;;;;;;;23.35;100.00;99270.30;1692193;83;21069;-53
2022/07/25 10:28:47;;;;;;;0.70;0.50;;;;;;;23.38;100.00;99261.73;1693665;83;21157;-54
2022/07/25 10:31:27;;;;;;;2.00;0.57;;;;;;;23.37;100.00;99269.63;1695271;82;21039;-54
2022/07/25 10:34:03;;;;;;;1.57;0.50;;;;;;;23.32;100.00;99267.02;1706228;81;21024;-54
2022/07/25 10:36:52;;;;;;;1.52;0.40;;;;;;;23.23;100.00;99270.25;1683832;83;21088;-55
2022/07/25 10:39:24;;;;;;;1.67;0.60;;;;;;;23.16;100.00;99271.94;1694283;83;21062;-54
2022/07/25 10:41:52;;;;;;;1.62;0.60;;;;;;;23.10;100.00;99272.61;1689277;82;21117;-53
2022/07/25 10:44:19;;;;;;;0.62;0.50;;;;;;;23.06;100.00;99286.30;1695358;83;21293;-55
2022/07/25 10:46:46;;;;;;;2.17;0.50;;;;;;;23.05;100.00;99283.23;1708408;81;21076;-53
2022/07/25 10:49:20;;;;;;;0.70;0.50;;;;;;;23.02;100.00;99279.44;1710317;81;21521;-54
2022/07/25 10:51:59;;;;;;;0.80;0.60;;;;;;;23.00;100.00;99278.73;1689832;83;21089;-54
2022/07/25 10:54:34;;;;;;;0.50;0.50;;;;;;;23.01;100.00;99283.20;1687452;82;21108;-55
2022/07/25 10:57:01;;;;;;;0.70;0.50;;;;;;;23.04;100.00;99281.52;1666603;83;21029;-53
2022/07/25 10:59:37;;;;;;;0.50;0.40;;;;;;;23.08;100.00;99279.28;1649446;84;21722;-54
2022/07/25 11:02:15;;;;;;;1.30;0.40;;;;;;;23.09;100.00;99276.37;1659676;84;21127;-55
2022/07/25 11:04:38;;;;;;;0.85;0.50;;;;;;;23.11;100.00;99277.59;1651660;85;21059;-53
2022/07/25 11:07:09;;;;;;;0.55;0.40;;;;;;;23.11;100.00;99275.70;1653312;85;21504;-53
2022/07/25 11:09:36;;;;;;;1.10;0.50;;;;;;;23.14;100.00;99269.03;1645021;85;21042;-54
2022/07/25 11:12:05;;;;;;;1.07;0.60;;;;;;;23.19;100.00;99278.99;1702286;82;21899;-56
2022/07/25 11:14:40;;;;;;;1.00;0.60;;;;;;;23.22;100.00;99267.70;1698832;82;21752;-54
2022/07/25 11:17:18;;;;;;;0.47;0.47;;;;;;;23.26;100.00;99275.42;1677460;84;20995;-53
2022/07/25 11:20:05;;;;;;;2.08;0.57;;;;;;;23.30;100.00;99268.58;1705872;82;21387;-55
2022/07/25 11:22:33;;;;;;;1.65;0.60;;;;;;;23.34;100.00;99268.58;1703758;82;21398;-55
2022/07/25 11:25:00;;;;;;;1.45;0.62;;;;;;;23.37;100.00;99270.14;1670187;84;21254;-56
2022/07/25 11:27:31;;;;;;;0.70;0.60;;;;;;;23.42;100.00;99262.76;1674512;84;20918;-54
2022/07/25 11:30:15;;;;;;;7.87;1.60;;;;;;;23.45;100.00;99269.30;1674943;84;20922;-55
2022/07/25 11:32:53;;;;;;;0.80;0.60;;;;;;;23.45;100.00;99271.53;1699164;82;20911;-54
2022/07/25 11:35:29;;;;;;;0.90;0.65;;;;;;;23.39;100.00;99273.05;1665591;84;20910;-53
2022/07/25 11:37:56;;;;;;;1.37;0.60;;;;;;;23.35;100.00;99274.42;1665523;84;21372;-53
2022/07/25 11:40:22;;;;;;;0.80;0.70;;;;;;;23.30;100.00;99267.21;1700284;82;20947;-55
2022/07/25 11:42:51;;;;;;;0.70;0.60;;;;;;;23.23;100.00;99257.89;1702886;82;20919;-54
2022/07/25 11:45:25;;;;;;;1.37;0.62;;;;;;;23.16;100.00;99256.84;1709813;82;20962;-54
2022/07/25 11:48:11;;;;;;;1.00;0.70;;;;;;;23.15;100.00;99259.23;1708454;82;20932;-54
2022/07/25 11:50:41;;;;;;;2.52;0.90;;;;;;;23.16;100.00;99260.95;1701380;82;20935;-55
2022/07/25 11:53:12;;;;;;;1.40;0.70;;;;;;;23.24;100.00;99243.65;1668578;84;20970;-53
2022/07/25 11:55:41;;;;;;;0.75;0.62;;;;;;;23.26;100.00;99254.82;1703796;82;21375;-53